sensor_id;sensor_type;location;lat;lon;timestamp;P1;durP1;ratioP1;P2;durP2;ratioP2
39218;SDS011;24934;52.752;6.964;2023-07-29T00:00:46;29.67;;;22.52;;
39218;SDS011;24934;52.752;6.964;2023-07-29T00:03:12;29.98;;;23.23;;
39218;SDS011;24934;52.752;6.964;2023-07-29T00:05:38;32.60;;;24.15;;
39218;SDS011;24934;52.752;6.964;2023-07-29T00:08:04;31.50;;;23.65;;
39218;SDS011;24934;52.752;6.964;2023-07-29T00:10:35;32.05;;;24.92;;
39218;SDS011;24934;52.752;6.964;2023-07-29T00:13:02;31.13;;;23.70;;
39218;SDS011;24934;52.752;6.964;2023-07-29T00:15:28;38.25;;;24.27;;
39218;SDS011;24934;52.752;6.964;2023-07-29T00:17:54;35.42;;;24.45;;
39218;SDS011;24934;52.752;6.964;2023-07-29T00:20:20;34.58;;;24.80;;
39218;SDS011;24934;52.752;6.964;2023-07-29T00:22:45;36.25;;;24.83;;
39218;SDS011;24934;52.752;6.964;2023-07-29T00:25:11;36.28;;;25.83;;
39218;SDS011;24934;52.752;6.964;2023-07-29T00:27:37;36.85;;;26.10;;
39218;SDS011;24934;52.752;6.964;2023-07-29T00:30:03;37.30;;;25.40;;
39218;SDS011;24934;52.752;6.964;2023-07-29T00:32:29;32.60;;;24.10;;
39218;SDS011;24934;52.752;6.964;2023-07-29T00:34:56;37.03;;;25.80;;
39218;SDS011;24934;52.752;6.964;2023-07-29T00:37:21;34.20;;;25.67;;
39218;SDS011;24934;52.752;6.964;2023-07-29T00:39:49;36.03;;;25.85;;
39218;SDS011;24934;52.752;6.964;2023-07-29T00:42:15;37.58;;;25.35;;
39218;SDS011;24934;52.752;6.964;2023-07-29T00:44:40;34.47;;;25.20;;
39218;SDS011;24934;52.752;6.964;2023-07-29T00:47:06;31.10;;;24.73;;
39218;SDS011;24934;52.752;6.964;2023-07-29T00:49:32;38.63;;;26.42;;
39218;SDS011;24934;52.752;6.964;2023-07-29T00:51:58;34.72;;;25.20;;
39218;SDS011;24934;52.752;6.964;2023-07-29T00:54:24;35.20;;;26.05;;
39218;SDS011;24934;52.752;6.964;2023-07-29T00:56:50;31.77;;;25.05;;
39218;SDS011;24934;52.752;6.964;2023-07-29T00:59:16;37.05;;;25.80;;
39218;SDS011;24934;52.752;6.964;2023-07-29T01:01:43;34.55;;;24.73;;
39218;SDS011;24934;52.752;6.964;2023-07-29T01:04:09;29.33;;;24.95;;
39218;SDS011;24934;52.752;6.964;2023-07-29T01:06:41;32.45;;;25.77;;
39218;SDS011;24934;52.752;6.964;2023-07-29T01:09:41;32.00;;;24.27;;
39218;SDS011;24934;52.752;6.964;2023-07-29T01:12:24;35.40;;;24.80;;
39218;SDS011;24934;52.752;6.964;2023-07-29T01:17:55;29.35;;;23.98;;
39218;SDS011;24934;52.752;6.964;2023-07-29T01:20:42;31.00;;;24.05;;
39218;SDS011;24934;52.752;6.964;2023-07-29T01:23:11;30.73;;;23.55;;
39218;SDS011;24934;52.752;6.964;2023-07-29T01:25:37;27.08;;;23.20;;
39218;SDS011;24934;52.752;6.964;2023-07-29T01:28:02;30.90;;;23.38;;
39218;SDS011;24934;52.752;6.964;2023-07-29T01:30:37;30.73;;;23.38;;
39218;SDS011;24934;52.752;6.964;2023-07-29T01:38:38;27.00;;;21.98;;
39218;SDS011;24934;52.752;6.964;2023-07-29T01:41:07;30.00;;;21.83;;
39218;SDS011;24934;52.752;6.964;2023-07-29T01:43:33;30.17;;;22.42;;
39218;SDS011;24934;52.752;6.964;2023-07-29T01:46:04;30.55;;;22.40;;
39218;SDS011;24934;52.752;6.964;2023-07-29T01:48:36;26.15;;;21.65;;
39218;SDS011;24934;52.752;6.964;2023-07-29T01:51:02;28.20;;;21.85;;
39218;SDS011;24934;52.752;6.964;2023-07-29T01:53:28;26.75;;;21.48;;
39218;SDS011;24934;52.752;6.964;2023-07-29T01:55:54;27.42;;;21.45;;
39218;SDS011;24934;52.752;6.964;2023-07-29T01:58:21;28.17;;;21.35;;
39218;SDS011;24934;52.752;6.964;2023-07-29T02:00:47;27.30;;;21.77;;
39218;SDS011;24934;52.752;6.964;2023-07-29T02:03:13;25.20;;;21.73;;
39218;SDS011;24934;52.752;6.964;2023-07-29T02:05:39;25.38;;;21.15;;
39218;SDS011;24934;52.752;6.964;2023-07-29T02:08:04;27.48;;;21.67;;
39218;SDS011;24934;52.752;6.964;2023-07-29T02:10:30;24.92;;;20.35;;
39218;SDS011;24934;52.752;6.964;2023-07-29T02:12:56;25.67;;;21.10;;
39218;SDS011;24934;52.752;6.964;2023-07-29T02:15:21;26.10;;;21.52;;
39218;SDS011;24934;52.752;6.964;2023-07-29T02:17:49;27.10;;;21.23;;
39218;SDS011;24934;52.752;6.964;2023-07-29T02:20:16;26.33;;;21.85;;
39218;SDS011;24934;52.752;6.964;2023-07-29T02:22:41;26.20;;;21.52;;
39218;SDS011;24934;52.752;6.964;2023-07-29T02:25:07;28.40;;;22.13;;
39218;SDS011;24934;52.752;6.964;2023-07-29T02:27:33;27.58;;;22.20;;
39218;SDS011;24934;52.752;6.964;2023-07-29T02:29:58;27.27;;;22.08;;
39218;SDS011;24934;52.752;6.964;2023-07-29T02:32:24;27.50;;;22.20;;
39218;SDS011;24934;52.752;6.964;2023-07-29T02:34:50;27.65;;;21.02;;
39218;SDS011;24934;52.752;6.964;2023-07-29T02:37:15;26.67;;;20.77;;
39218;SDS011;24934;52.752;6.964;2023-07-29T02:39:42;27.00;;;20.05;;
39218;SDS011;24934;52.752;6.964;2023-07-29T02:42:07;26.95;;;20.20;;
39218;SDS011;24934;52.752;6.964;2023-07-29T02:44:33;31.90;;;20.95;;
39218;SDS011;24934;52.752;6.964;2023-07-29T02:46:59;22.42;;;18.50;;
39218;SDS011;24934;52.752;6.964;2023-07-29T02:49:24;24.23;;;19.40;;
39218;SDS011;24934;52.752;6.964;2023-07-29T02:51:50;22.92;;;18.63;;
39218;SDS011;24934;52.752;6.964;2023-07-29T02:54:18;23.35;;;19.35;;
39218;SDS011;24934;52.752;6.964;2023-07-29T02:56:46;24.48;;;19.38;;
39218;SDS011;24934;52.752;6.964;2023-07-29T02:59:12;21.77;;;18.33;;
39218;SDS011;24934;52.752;6.964;2023-07-29T03:01:37;26.40;;;19.50;;
39218;SDS011;24934;52.752;6.964;2023-07-29T03:04:03;21.70;;;18.33;;
39218;SDS011;24934;52.752;6.964;2023-07-29T03:06:29;23.77;;;17.13;;
39218;SDS011;24934;52.752;6.964;2023-07-29T03:08:54;22.27;;;17.33;;
39218;SDS011;24934;52.752;6.964;2023-07-29T03:11:20;22.83;;;16.58;;
39218;SDS011;24934;52.752;6.964;2023-07-29T03:13:46;19.88;;;16.25;;
39218;SDS011;24934;52.752;6.964;2023-07-29T03:16:12;17.95;;;14.98;;
39218;SDS011;24934;52.752;6.964;2023-07-29T03:18:42;20.83;;;15.88;;
39218;SDS011;24934;52.752;6.964;2023-07-29T03:21:09;19.17;;;15.52;;
39218;SDS011;24934;52.752;6.964;2023-07-29T03:23:35;18.55;;;14.70;;
39218;SDS011;24934;52.752;6.964;2023-07-29T03:26:02;20.05;;;15.10;;
39218;SDS011;24934;52.752;6.964;2023-07-29T03:28:34;17.60;;;14.27;;
39218;SDS011;24934;52.752;6.964;2023-07-29T03:31:01;15.13;;;13.35;;
39218;SDS011;24934;52.752;6.964;2023-07-29T03:33:29;14.95;;;13.30;;
39218;SDS011;24934;52.752;6.964;2023-07-29T03:35:58;16.83;;;12.98;;
39218;SDS011;24934;52.752;6.964;2023-07-29T03:38:26;14.85;;;13.02;;
39218;SDS011;24934;52.752;6.964;2023-07-29T03:40:52;15.27;;;12.45;;
39218;SDS011;24934;52.752;6.964;2023-07-29T03:43:18;18.85;;;14.18;;
39218;SDS011;24934;52.752;6.964;2023-07-29T03:45:44;16.30;;;14.02;;
39218;SDS011;24934;52.752;6.964;2023-07-29T03:48:09;14.55;;;13.07;;
39218;SDS011;24934;52.752;6.964;2023-07-29T03:50:35;16.48;;;13.13;;
39218;SDS011;24934;52.752;6.964;2023-07-29T03:53:02;17.83;;;13.45;;
39218;SDS011;24934;52.752;6.964;2023-07-29T03:55:28;15.60;;;13.00;;
39218;SDS011;24934;52.752;6.964;2023-07-29T03:57:57;14.10;;;12.63;;
39218;SDS011;24934;52.752;6.964;2023-07-29T04:00:23;14.63;;;13.23;;
39218;SDS011;24934;52.752;6.964;2023-07-29T04:02:49;16.23;;;14.52;;
39218;SDS011;24934;52.752;6.964;2023-07-29T04:05:15;16.35;;;14.68;;
39218;SDS011;24934;52.752;6.964;2023-07-29T04:07:41;17.02;;;14.82;;
39218;SDS011;24934;52.752;6.964;2023-07-29T04:10:07;18.83;;;15.55;;
39218;SDS011;24934;52.752;6.964;2023-07-29T04:12:33;17.55;;;15.73;;
39218;SDS011;24934;52.752;6.964;2023-07-29T04:14:59;17.20;;;15.30;;
39218;SDS011;24934;52.752;6.964;2023-07-29T04:17:25;17.98;;;16.02;;
39218;SDS011;24934;52.752;6.964;2023-07-29T04:19:50;19.05;;;15.10;;
39218;SDS011;24934;52.752;6.964;2023-07-29T04:22:17;17.15;;;15.15;;
39218;SDS011;24934;52.752;6.964;2023-07-29T04:24:43;16.05;;;14.45;;
39218;SDS011;24934;52.752;6.964;2023-07-29T04:27:09;16.20;;;14.57;;
39218;SDS011;24934;52.752;6.964;2023-07-29T04:29:35;17.88;;;14.70;;
39218;SDS011;24934;52.752;6.964;2023-07-29T04:32:04;16.38;;;14.68;;
39218;SDS011;24934;52.752;6.964;2023-07-29T04:34:33;18.55;;;14.43;;
39218;SDS011;24934;52.752;6.964;2023-07-29T04:37:16;15.57;;;13.98;;
39218;SDS011;24934;52.752;6.964;2023-07-29T04:39:42;15.88;;;14.38;;
39218;SDS011;24934;52.752;6.964;2023-07-29T04:42:08;16.38;;;14.70;;
39218;SDS011;24934;52.752;6.964;2023-07-29T04:44:36;15.82;;;14.23;;
39218;SDS011;24934;52.752;6.964;2023-07-29T04:47:10;15.70;;;14.05;;
39218;SDS011;24934;52.752;6.964;2023-07-29T04:49:35;15.02;;;13.63;;
39218;SDS011;24934;52.752;6.964;2023-07-29T04:52:01;14.73;;;13.32;;
39218;SDS011;24934;52.752;6.964;2023-07-29T04:54:27;14.88;;;13.57;;
39218;SDS011;24934;52.752;6.964;2023-07-29T04:56:53;15.68;;;13.20;;
39218;SDS011;24934;52.752;6.964;2023-07-29T04:59:18;13.48;;;12.25;;
39218;SDS011;24934;52.752;6.964;2023-07-29T05:01:44;14.15;;;12.85;;
39218;SDS011;24934;52.752;6.964;2023-07-29T05:04:10;14.55;;;13.20;;
39218;SDS011;24934;52.752;6.964;2023-07-29T05:06:36;13.75;;;12.55;;
39218;SDS011;24934;52.752;6.964;2023-07-29T05:09:14;14.98;;;13.57;;
39218;SDS011;24934;52.752;6.964;2023-07-29T05:11:43;13.65;;;12.35;;
39218;SDS011;24934;52.752;6.964;2023-07-29T05:14:20;14.98;;;12.73;;
39218;SDS011;24934;52.752;6.964;2023-07-29T05:19:43;14.57;;;13.18;;
39218;SDS011;24934;52.752;6.964;2023-07-29T05:22:29;14.18;;;12.77;;
39218;SDS011;24934;52.752;6.964;2023-07-29T05:24:59;14.20;;;13.00;;
39218;SDS011;24934;52.752;6.964;2023-07-29T05:28:19;16.45;;;12.82;;
39218;SDS011;24934;52.752;6.964;2023-07-29T05:30:54;15.23;;;13.60;;
39218;SDS011;24934;52.752;6.964;2023-07-29T05:33:23;14.40;;;13.00;;
39218;SDS011;24934;52.752;6.964;2023-07-29T05:35:52;15.05;;;13.65;;
39218;SDS011;24934;52.752;6.964;2023-07-29T05:38:23;15.00;;;13.60;;
39218;SDS011;24934;52.752;6.964;2023-07-29T05:40:48;14.88;;;13.57;;
39218;SDS011;24934;52.752;6.964;2023-07-29T05:43:17;15.18;;;13.45;;
39218;SDS011;24934;52.752;6.964;2023-07-29T05:46:21;15.23;;;13.68;;
39218;SDS011;24934;52.752;6.964;2023-07-29T05:49:00;15.25;;;13.77;;
39218;SDS011;24934;52.752;6.964;2023-07-29T05:51:54;15.13;;;13.52;;
39218;SDS011;24934;52.752;6.964;2023-07-29T05:54:24;16.85;;;14.63;;
39218;SDS011;24934;52.752;6.964;2023-07-29T05:56:51;15.68;;;14.18;;
39218;SDS011;24934;52.752;6.964;2023-07-29T06:00:06;16.55;;;13.75;;
39218;SDS011;24934;52.752;6.964;2023-07-29T06:02:32;18.17;;;13.38;;
39218;SDS011;24934;52.752;6.964;2023-07-29T06:05:02;15.43;;;13.88;;
39218;SDS011;24934;52.752;6.964;2023-07-29T06:07:29;17.08;;;14.02;;
39218;SDS011;24934;52.752;6.964;2023-07-29T06:09:58;16.60;;;13.60;;
39218;SDS011;24934;52.752;6.964;2023-07-29T06:12:24;15.25;;;13.57;;
39218;SDS011;24934;52.752;6.964;2023-07-29T06:14:52;18.25;;;14.15;;
39218;SDS011;24934;52.752;6.964;2023-07-29T06:17:18;15.73;;;14.10;;
39218;SDS011;24934;52.752;6.964;2023-07-29T06:19:44;15.50;;;13.90;;
39218;SDS011;24934;52.752;6.964;2023-07-29T06:22:09;15.93;;;14.20;;
39218;SDS011;24934;52.752;6.964;2023-07-29T06:24:35;16.02;;;14.40;;
39218;SDS011;24934;52.752;6.964;2023-07-29T06:27:01;15.48;;;14.07;;
39218;SDS011;24934;52.752;6.964;2023-07-29T06:29:27;16.45;;;14.23;;
39218;SDS011;24934;52.752;6.964;2023-07-29T06:31:52;16.73;;;15.02;;
39218;SDS011;24934;52.752;6.964;2023-07-29T06:34:22;16.13;;;14.52;;
39218;SDS011;24934;52.752;6.964;2023-07-29T06:36:47;16.10;;;14.18;;
39218;SDS011;24934;52.752;6.964;2023-07-29T06:39:13;16.63;;;14.93;;
39218;SDS011;24934;52.752;6.964;2023-07-29T06:41:39;16.63;;;14.93;;
39218;SDS011;24934;52.752;6.964;2023-07-29T06:44:04;18.20;;;14.77;;
39218;SDS011;24934;52.752;6.964;2023-07-29T06:46:30;18.05;;;15.68;;
39218;SDS011;24934;52.752;6.964;2023-07-29T06:48:55;16.85;;;15.05;;
39218;SDS011;24934;52.752;6.964;2023-07-29T06:51:21;19.00;;;14.85;;
39218;SDS011;24934;52.752;6.964;2023-07-29T06:53:46;15.48;;;13.77;;
39218;SDS011;24934;52.752;6.964;2023-07-29T06:56:12;16.67;;;14.88;;
39218;SDS011;24934;52.752;6.964;2023-07-29T06:58:38;16.00;;;14.40;;
39218;SDS011;24934;52.752;6.964;2023-07-29T07:01:03;16.75;;;15.07;;
39218;SDS011;24934;52.752;6.964;2023-07-29T07:03:29;17.85;;;15.52;;
39218;SDS011;24934;52.752;6.964;2023-07-29T07:05:55;16.20;;;14.75;;
39218;SDS011;24934;52.752;6.964;2023-07-29T07:08:20;17.45;;;14.65;;
39218;SDS011;24934;52.752;6.964;2023-07-29T07:10:48;19.30;;;14.75;;
39218;SDS011;24934;52.752;6.964;2023-07-29T07:13:14;19.60;;;14.98;;
39218;SDS011;24934;52.752;6.964;2023-07-29T07:15:39;18.60;;;15.10;;
39218;SDS011;24934;52.752;6.964;2023-07-29T07:18:05;16.88;;;14.57;;
39218;SDS011;24934;52.752;6.964;2023-07-29T07:20:31;16.33;;;14.68;;
39218;SDS011;24934;52.752;6.964;2023-07-29T07:22:56;16.42;;;14.73;;
39218;SDS011;24934;52.752;6.964;2023-07-29T07:25:22;16.48;;;14.70;;
39218;SDS011;24934;52.752;6.964;2023-07-29T07:27:47;16.48;;;14.80;;
39218;SDS011;24934;52.752;6.964;2023-07-29T07:30:13;17.25;;;15.50;;
39218;SDS011;24934;52.752;6.964;2023-07-29T07:32:39;17.88;;;15.90;;
39218;SDS011;24934;52.752;6.964;2023-07-29T07:35:05;16.73;;;15.18;;
39218;SDS011;24934;52.752;6.964;2023-07-29T07:37:30;18.17;;;16.10;;
39218;SDS011;24934;52.752;6.964;2023-07-29T07:39:56;19.63;;;16.13;;
39218;SDS011;24934;52.752;6.964;2023-07-29T07:42:22;17.15;;;15.35;;
39218;SDS011;24934;52.752;6.964;2023-07-29T07:44:47;17.17;;;15.48;;
39218;SDS011;24934;52.752;6.964;2023-07-29T07:47:13;17.33;;;15.68;;
39218;SDS011;24934;52.752;6.964;2023-07-29T07:49:38;16.92;;;15.23;;
39218;SDS011;24934;52.752;6.964;2023-07-29T07:52:04;19.15;;;15.40;;
39218;SDS011;24934;52.752;6.964;2023-07-29T07:54:30;15.93;;;14.00;;
39218;SDS011;24934;52.752;6.964;2023-07-29T07:56:56;15.32;;;13.70;;
39218;SDS011;24934;52.752;6.964;2023-07-29T07:59:21;15.25;;;13.68;;
39218;SDS011;24934;52.752;6.964;2023-07-29T08:01:47;15.77;;;14.15;;
39218;SDS011;24934;52.752;6.964;2023-07-29T08:04:13;15.98;;;13.15;;
39218;SDS011;24934;52.752;6.964;2023-07-29T08:06:38;14.43;;;13.13;;
39218;SDS011;24934;52.752;6.964;2023-07-29T08:09:04;17.58;;;14.43;;
39218;SDS011;24934;52.752;6.964;2023-07-29T08:11:30;16.58;;;14.82;;
39218;SDS011;24934;52.752;6.964;2023-07-29T08:13:56;16.38;;;14.73;;
39218;SDS011;24934;52.752;6.964;2023-07-29T08:16:21;15.40;;;13.60;;
39218;SDS011;24934;52.752;6.964;2023-07-29T08:18:47;15.35;;;13.85;;
39218;SDS011;24934;52.752;6.964;2023-07-29T08:21:15;14.88;;;13.63;;
39218;SDS011;24934;52.752;6.964;2023-07-29T08:23:44;14.38;;;13.07;;
39218;SDS011;24934;52.752;6.964;2023-07-29T08:26:10;17.50;;;13.60;;
39218;SDS011;24934;52.752;6.964;2023-07-29T08:28:36;15.05;;;13.60;;
39218;SDS011;24934;52.752;6.964;2023-07-29T08:31:03;15.68;;;13.98;;
39218;SDS011;24934;52.752;6.964;2023-07-29T08:33:30;16.23;;;14.55;;
39218;SDS011;24934;52.752;6.964;2023-07-29T08:35:56;15.70;;;14.30;;
39218;SDS011;24934;52.752;6.964;2023-07-29T08:38:22;15.88;;;14.43;;
39218;SDS011;24934;52.752;6.964;2023-07-29T08:43:19;15.30;;;14.00;;
39218;SDS011;24934;52.752;6.964;2023-07-29T08:45:50;15.88;;;14.43;;
39218;SDS011;24934;52.752;6.964;2023-07-29T08:48:18;14.07;;;12.88;;
39218;SDS011;24934;52.752;6.964;2023-07-29T08:50:49;14.23;;;12.90;;
39218;SDS011;24934;52.752;6.964;2023-07-29T08:53:17;13.52;;;12.18;;
39218;SDS011;24934;52.752;6.964;2023-07-29T08:55:43;14.32;;;13.00;;
39218;SDS011;24934;52.752;6.964;2023-07-29T08:58:08;14.13;;;12.77;;
39218;SDS011;24934;52.752;6.964;2023-07-29T09:00:35;15.27;;;12.52;;
39218;SDS011;24934;52.752;6.964;2023-07-29T09:03:01;13.93;;;12.60;;
39218;SDS011;24934;52.752;6.964;2023-07-29T09:05:32;13.68;;;12.25;;
39218;SDS011;24934;52.752;6.964;2023-07-29T09:07:58;13.43;;;12.20;;
39218;SDS011;24934;52.752;6.964;2023-07-29T09:10:25;13.90;;;12.50;;
39218;SDS011;24934;52.752;6.964;2023-07-29T09:12:51;13.32;;;11.90;;
39218;SDS011;24934;52.752;6.964;2023-07-29T09:15:26;12.60;;;11.40;;
39218;SDS011;24934;52.752;6.964;2023-07-29T09:17:53;12.85;;;11.60;;
39218;SDS011;24934;52.752;6.964;2023-07-29T09:20:23;11.85;;;10.95;;
39218;SDS011;24934;52.752;6.964;2023-07-29T09:22:56;12.60;;;11.50;;
39218;SDS011;24934;52.752;6.964;2023-07-29T09:25:27;12.55;;;11.40;;
39218;SDS011;24934;52.752;6.964;2023-07-29T09:27:59;12.43;;;11.40;;
39218;SDS011;24934;52.752;6.964;2023-07-29T09:30:25;12.10;;;10.90;;
39218;SDS011;24934;52.752;6.964;2023-07-29T09:32:55;13.57;;;11.40;;
39218;SDS011;24934;52.752;6.964;2023-07-29T09:35:22;12.02;;;11.02;;
39218;SDS011;24934;52.752;6.964;2023-07-29T09:37:48;12.13;;;11.13;;
39218;SDS011;24934;52.752;6.964;2023-07-29T09:40:16;12.20;;;11.10;;
39218;SDS011;24934;52.752;6.964;2023-07-29T09:42:52;12.00;;;11.00;;
39218;SDS011;24934;52.752;6.964;2023-07-29T09:45:22;13.48;;;12.30;;
39218;SDS011;24934;52.752;6.964;2023-07-29T09:47:49;12.48;;;11.32;;
39218;SDS011;24934;52.752;6.964;2023-07-29T09:50:18;13.80;;;12.40;;
39218;SDS011;24934;52.752;6.964;2023-07-29T09:52:43;12.73;;;11.73;;
39218;SDS011;24934;52.752;6.964;2023-07-29T09:55:12;12.02;;;11.02;;
39218;SDS011;24934;52.752;6.964;2023-07-29T09:57:39;13.05;;;11.95;;
39218;SDS011;24934;52.752;6.964;2023-07-29T10:00:06;12.07;;;11.15;;
39218;SDS011;24934;52.752;6.964;2023-07-29T10:02:37;12.52;;;11.52;;
39218;SDS011;24934;52.752;6.964;2023-07-29T10:05:08;12.07;;;11.00;;
39218;SDS011;24934;52.752;6.964;2023-07-29T10:07:38;12.23;;;11.13;;
39218;SDS011;24934;52.752;6.964;2023-07-29T10:10:04;12.18;;;11.00;;
39218;SDS011;24934;52.752;6.964;2023-07-29T10:12:33;11.63;;;10.63;;
39218;SDS011;24934;52.752;6.964;2023-07-29T10:15:01;12.75;;;11.70;;
39218;SDS011;24934;52.752;6.964;2023-07-29T10:17:33;12.88;;;11.52;;
39218;SDS011;24934;52.752;6.964;2023-07-29T10:20:00;13.48;;;12.38;;
39218;SDS011;24934;52.752;6.964;2023-07-29T10:22:28;12.30;;;11.40;;
39218;SDS011;24934;52.752;6.964;2023-07-29T10:25:04;12.60;;;11.35;;
39218;SDS011;24934;52.752;6.964;2023-07-29T10:27:35;12.23;;;11.32;;
39218;SDS011;24934;52.752;6.964;2023-07-29T10:30:10;12.27;;;11.35;;
39218;SDS011;24934;52.752;6.964;2023-07-29T10:32:37;12.32;;;11.23;;
39218;SDS011;24934;52.752;6.964;2023-07-29T10:35:03;12.55;;;11.45;;
39218;SDS011;24934;52.752;6.964;2023-07-29T10:37:29;11.82;;;10.85;;
39218;SDS011;24934;52.752;6.964;2023-07-29T10:39:55;11.98;;;10.98;;
39218;SDS011;24934;52.752;6.964;2023-07-29T10:42:21;12.18;;;11.18;;
39218;SDS011;24934;52.752;6.964;2023-07-29T10:44:48;11.95;;;10.90;;
39218;SDS011;24934;52.752;6.964;2023-07-29T10:47:15;12.63;;;11.43;;
39218;SDS011;24934;52.752;6.964;2023-07-29T10:49:42;13.05;;;12.05;;
39218;SDS011;24934;52.752;6.964;2023-07-29T10:52:12;12.23;;;11.20;;
39218;SDS011;24934;52.752;6.964;2023-07-29T10:54:52;12.85;;;11.75;;
39218;SDS011;24934;52.752;6.964;2023-07-29T11:00:15;13.25;;;12.20;;
39218;SDS011;24934;52.752;6.964;2023-07-29T11:02:56;13.85;;;12.75;;
39218;SDS011;24934;52.752;6.964;2023-07-29T11:05:27;13.60;;;12.40;;
39218;SDS011;24934;52.752;6.964;2023-07-29T11:08:17;13.25;;;12.25;;
39218;SDS011;24934;52.752;6.964;2023-07-29T11:10:43;14.20;;;13.02;;
39218;SDS011;24934;52.752;6.964;2023-07-29T11:13:09;15.68;;;14.25;;
39218;SDS011;24934;52.752;6.964;2023-07-29T11:15:38;13.55;;;12.50;;
39218;SDS011;24934;52.752;6.964;2023-07-29T11:18:04;11.88;;;11.07;;
39218;SDS011;24934;52.752;6.964;2023-07-29T11:20:33;12.70;;;11.70;;
39218;SDS011;24934;52.752;6.964;2023-07-29T11:23:00;13.75;;;12.70;;
39218;SDS011;24934;52.752;6.964;2023-07-29T11:25:27;13.45;;;12.30;;
39218;SDS011;24934;52.752;6.964;2023-07-29T11:27:55;11.68;;;10.77;;
39218;SDS011;24934;52.752;6.964;2023-07-29T11:30:21;13.10;;;12.05;;
39218;SDS011;24934;52.752;6.964;2023-07-29T11:32:54;13.93;;;11.93;;
39218;SDS011;24934;52.752;6.964;2023-07-29T11:35:21;13.80;;;12.60;;
39218;SDS011;24934;52.752;6.964;2023-07-29T11:37:47;12.73;;;11.57;;
39218;SDS011;24934;52.752;6.964;2023-07-29T11:40:15;15.32;;;13.80;;
39218;SDS011;24934;52.752;6.964;2023-07-29T11:42:42;15.50;;;14.20;;
39218;SDS011;24934;52.752;6.964;2023-07-29T11:45:08;14.38;;;13.07;;
39218;SDS011;24934;52.752;6.964;2023-07-29T11:47:34;15.32;;;14.13;;
39218;SDS011;24934;52.752;6.964;2023-07-29T11:50:02;17.33;;;13.82;;
39218;SDS011;24934;52.752;6.964;2023-07-29T11:52:29;15.23;;;13.93;;
39218;SDS011;24934;52.752;6.964;2023-07-29T11:54:56;14.25;;;13.15;;
39218;SDS011;24934;52.752;6.964;2023-07-29T11:57:23;13.48;;;12.07;;
39218;SDS011;24934;52.752;6.964;2023-07-29T11:59:52;12.38;;;11.48;;
39218;SDS011;24934;52.752;6.964;2023-07-29T12:02:27;14.88;;;13.48;;
39218;SDS011;24934;52.752;6.964;2023-07-29T12:04:53;15.60;;;14.35;;
39218;SDS011;24934;52.752;6.964;2023-07-29T12:07:19;15.20;;;13.95;;
39218;SDS011;24934;52.752;6.964;2023-07-29T12:09:45;16.02;;;14.48;;
39218;SDS011;24934;52.752;6.964;2023-07-29T12:12:11;14.70;;;13.40;;
39218;SDS011;24934;52.752;6.964;2023-07-29T12:14:37;14.55;;;13.25;;
39218;SDS011;24934;52.752;6.964;2023-07-29T12:17:04;14.07;;;13.00;;
39218;SDS011;24934;52.752;6.964;2023-07-29T12:19:34;14.90;;;13.00;;
39218;SDS011;24934;52.752;6.964;2023-07-29T12:22:04;13.63;;;12.43;;
39218;SDS011;24934;52.752;6.964;2023-07-29T12:24:31;15.02;;;13.52;;
39218;SDS011;24934;52.752;6.964;2023-07-29T12:26:58;14.80;;;13.50;;
39218;SDS011;24934;52.752;6.964;2023-07-29T12:29:24;13.50;;;12.30;;
39218;SDS011;24934;52.752;6.964;2023-07-29T12:31:57;14.20;;;12.80;;
39218;SDS011;24934;52.752;6.964;2023-07-29T12:34:27;13.65;;;12.55;;
39218;SDS011;24934;52.752;6.964;2023-07-29T12:36:54;14.00;;;12.68;;
39218;SDS011;24934;52.752;6.964;2023-07-29T12:39:30;16.52;;;13.00;;
39218;SDS011;24934;52.752;6.964;2023-07-29T12:42:01;14.38;;;13.25;;
39218;SDS011;24934;52.752;6.964;2023-07-29T12:44:32;12.93;;;11.57;;
39218;SDS011;24934;52.752;6.964;2023-07-29T12:47:03;12.88;;;11.88;;
39218;SDS011;24934;52.752;6.964;2023-07-29T12:49:30;12.50;;;11.50;;
39218;SDS011;24934;52.752;6.964;2023-07-29T12:51:56;12.57;;;11.35;;
39218;SDS011;24934;52.752;6.964;2023-07-29T12:54:22;12.38;;;11.20;;
39218;SDS011;24934;52.752;6.964;2023-07-29T12:56:48;12.90;;;11.80;;
39218;SDS011;24934;52.752;6.964;2023-07-29T12:59:14;12.95;;;11.75;;
39218;SDS011;24934;52.752;6.964;2023-07-29T13:01:40;13.13;;;11.93;;
39218;SDS011;24934;52.752;6.964;2023-07-29T13:04:05;13.05;;;11.60;;
39218;SDS011;24934;52.752;6.964;2023-07-29T13:06:31;13.57;;;12.27;;
39218;SDS011;24934;52.752;6.964;2023-07-29T13:08:57;13.20;;;11.93;;
39218;SDS011;24934;52.752;6.964;2023-07-29T13:11:22;13.10;;;12.05;;
39218;SDS011;24934;52.752;6.964;2023-07-29T13:13:48;12.90;;;11.93;;
39218;SDS011;24934;52.752;6.964;2023-07-29T13:16:14;13.25;;;12.15;;
39218;SDS011;24934;52.752;6.964;2023-07-29T13:18:40;13.90;;;12.70;;
39218;SDS011;24934;52.752;6.964;2023-07-29T13:21:06;14.00;;;12.85;;
39218;SDS011;24934;52.752;6.964;2023-07-29T13:23:31;13.02;;;11.70;;
39218;SDS011;24934;52.752;6.964;2023-07-29T13:25:57;13.43;;;12.32;;
39218;SDS011;24934;52.752;6.964;2023-07-29T13:28:23;12.13;;;11.07;;
39218;SDS011;24934;52.752;6.964;2023-07-29T13:30:49;12.55;;;11.40;;
39218;SDS011;24934;52.752;6.964;2023-07-29T13:33:14;11.73;;;10.50;;
39218;SDS011;24934;52.752;6.964;2023-07-29T13:35:40;11.80;;;10.73;;
39218;SDS011;24934;52.752;6.964;2023-07-29T13:38:06;11.68;;;10.68;;
39218;SDS011;24934;52.752;6.964;2023-07-29T13:40:31;13.57;;;12.18;;
39218;SDS011;24934;52.752;6.964;2023-07-29T13:42:57;12.30;;;11.40;;
39218;SDS011;24934;52.752;6.964;2023-07-29T13:45:23;12.82;;;11.73;;
39218;SDS011;24934;52.752;6.964;2023-07-29T13:47:49;12.55;;;11.50;;
39218;SDS011;24934;52.752;6.964;2023-07-29T13:50:15;11.50;;;10.60;;
39218;SDS011;24934;52.752;6.964;2023-07-29T13:52:41;12.85;;;11.75;;
39218;SDS011;24934;52.752;6.964;2023-07-29T13:55:07;11.60;;;10.60;;
39218;SDS011;24934;52.752;6.964;2023-07-29T13:57:32;13.70;;;12.40;;
39218;SDS011;24934;52.752;6.964;2023-07-29T13:59:58;11.90;;;11.07;;
39218;SDS011;24934;52.752;6.964;2023-07-29T14:02:24;13.05;;;12.05;;
39218;SDS011;24934;52.752;6.964;2023-07-29T14:04:53;13.30;;;12.20;;
39218;SDS011;24934;52.752;6.964;2023-07-29T14:07:19;11.90;;;10.85;;
39218;SDS011;24934;52.752;6.964;2023-07-29T14:09:45;12.90;;;11.70;;
39218;SDS011;24934;52.752;6.964;2023-07-29T14:12:10;13.07;;;11.95;;
39218;SDS011;24934;52.752;6.964;2023-07-29T14:14:38;13.20;;;12.20;;
39218;SDS011;24934;52.752;6.964;2023-07-29T14:17:04;11.98;;;11.07;;
39218;SDS011;24934;52.752;6.964;2023-07-29T14:19:31;11.75;;;10.88;;
39218;SDS011;24934;52.752;6.964;2023-07-29T14:21:56;11.55;;;10.75;;
39218;SDS011;24934;52.752;6.964;2023-07-29T14:24:22;11.30;;;10.50;;
39218;SDS011;24934;52.752;6.964;2023-07-29T14:26:48;11.52;;;10.65;;
39218;SDS011;24934;52.752;6.964;2023-07-29T14:29:13;10.60;;;9.90;;
39218;SDS011;24934;52.752;6.964;2023-07-29T14:31:39;12.35;;;11.35;;
39218;SDS011;24934;52.752;6.964;2023-07-29T14:34:05;12.15;;;11.05;;
39218;SDS011;24934;52.752;6.964;2023-07-29T14:36:30;10.98;;;10.15;;
39218;SDS011;24934;52.752;6.964;2023-07-29T14:38:56;11.77;;;10.75;;
39218;SDS011;24934;52.752;6.964;2023-07-29T14:41:21;11.23;;;10.38;;